Time;durP1;ratioP1;P1;durP2;ratioP2;P2;SDS_P1;SDS_P2;PMS_P1;PMS_P2;Temp;Humidity;BMP_temperature;BMP_pressure;BME280_temperature;BME280_humidity;BME280_pressure;Samples;Min_cycle;Max_cycle;Signal;HPM_P1;HPM_P2
2022/11/14 00:00:04;;;;;;;29.70;12.18;;;7.10;82.50;;;;;;4971294;28;20077;-80
2022/11/14 00:02:50;;;;;;;35.28;12.95;;;7.10;83.10;;;;;;4972466;28;20545;-81
2022/11/14 00:05:39;;;;;;;31.52;12.13;;;7.20;82.50;;;;;;4971227;28;20047;-81
2022/11/14 00:08:25;;;;;;;31.00;12.40;;;7.20;82.70;;;;;;4972455;28;20063;-80
2022/11/14 00:11:12;;;;;;;30.33;12.27;;;7.20;82.80;;;;;;4970886;28;20267;-80
2022/11/14 00:13:57;;;;;;;29.55;13.10;;;7.20;82.60;;;;;;4971017;28;20066;-80
2022/11/14 00:16:43;;;;;;;30.33;13.20;;;7.20;82.90;;;;;;4970862;28;20057;-80
2022/11/14 00:19:28;;;;;;;29.08;12.00;;;7.20;83.10;;;;;;4970890;28;20047;-80
2022/11/14 00:22:14;;;;;;;30.70;12.57;;;7.20;83.00;;;;;;4970668;28;20051;-81
2022/11/14 00:25:00;;;;;;;29.17;12.25;;;7.20;83.00;;;;;;4972146;28;20338;-80
2022/11/14 00:27:47;;;;;;;29.70;12.80;;;7.20;83.00;;;;;;4971023;28;20474;-80
2022/11/14 00:30:32;;;;;;;30.08;12.50;;;7.20;83.00;;;;;;4971827;28;20059;-81
2022/11/14 00:33:19;;;;;;;31.08;12.23;;;7.20;82.90;;;;;;4970482;28;20079;-80
2022/11/14 00:36:05;;;;;;;28.20;12.73;;;7.20;82.80;;;;;;4970774;28;20548;-80
2022/11/14 00:38:53;;;;;;;31.58;12.88;;;7.20;82.70;;;;;;4970621;28;20275;-80
2022/11/14 00:41:39;;;;;;;31.17;13.15;;;7.20;82.80;;;;;;4971988;28;20095;-81
2022/11/14 00:44:26;;;;;;;30.50;13.68;;;7.30;83.10;;;;;;4970513;28;20063;-80
2022/11/14 00:47:12;;;;;;;33.25;13.13;;;7.30;83.00;;;;;;4970661;28;20273;-80
2022/11/14 00:49:57;;;;;;;31.67;13.30;;;7.30;83.00;;;;;;4970402;28;20055;-80
2022/11/14 00:52:43;;;;;;;30.98;14.27;;;7.30;82.90;;;;;;4970346;28;20270;-80
2022/11/14 00:55:29;;;;;;;32.30;13.02;;;7.30;82.80;;;;;;4970385;28;20062;-80
2022/11/14 00:58:14;;;;;;;32.42;14.27;;;7.30;83.00;;;;;;4970260;28;20138;-80
2022/11/14 01:01:01;;;;;;;35.00;14.98;;;7.30;82.90;;;;;;4970374;28;20051;-80
2022/11/14 01:03:48;;;;;;;32.40;14.37;;;7.40;82.70;;;;;;4970303;28;20122;-81
2022/11/14 01:06:34;;;;;;;36.30;14.30;;;7.40;82.80;;;;;;4970369;28;21230;-80
2022/11/14 01:09:20;;;;;;;32.88;14.45;;;7.40;82.60;;;;;;4976081;28;20061;-80
2022/11/14 01:12:05;;;;;;;31.15;14.02;;;7.40;82.80;;;;;;4976702;28;20131;-80
2022/11/14 01:14:51;;;;;;;33.83;14.88;;;7.40;82.70;;;;;;4977999;28;20051;-80
2022/11/14 01:20:45;;;;;;;35.63;14.52;;;7.40;82.60;;;;;;4993430;28;20294;-80
2022/11/14 01:23:31;;;;;;;35.88;14.38;;;7.40;82.40;;;;;;5012478;28;20530;-80
2022/11/14 01:26:17;;;;;;;38.70;15.57;;;7.40;82.40;;;;;;5012796;28;20046;-81
2022/11/14 01:29:02;;;;;;;31.50;14.45;;;7.40;82.30;;;;;;5012167;28;20057;-80
2022/11/14 01:31:48;;;;;;;39.17;17.23;;;7.40;82.40;;;;;;5012716;28;20198;-81
2022/11/14 01:34:34;;;;;;;34.20;14.77;;;7.40;82.40;;;;;;5012308;28;20354;-80
2022/11/14 01:37:21;;;;;;;39.15;15.95;;;7.40;82.40;;;;;;5012265;28;20055;-80
2022/11/14 01:40:09;;;;;;;37.75;15.32;;;7.40;82.10;;;;;;5011934;28;20058;-80
2022/11/14 01:43:26;;;;;;;36.42;15.45;;;7.40;82.30;;;;;;4997121;28;20505;-80
2022/11/14 01:46:17;;;;;;;36.43;14.77;;;7.40;82.30;;;;;;4962228;28;20066;-80
2022/11/14 01:49:06;;;;;;;35.35;15.35;;;7.40;82.20;;;;;;5012106;28;20262;-80
2022/11/14 01:51:59;;;;;;;38.83;15.80;;;7.40;81.90;;;;;;5012020;28;20047;-81
2022/11/14 01:54:50;;;;;;;38.92;16.15;;;7.30;82.00;;;;;;5011925;28;20133;-81
2022/11/14 01:57:38;;;;;;;38.60;16.38;;;7.40;82.00;;;;;;5011993;28;21025;-81
2022/11/14 02:00:24;;;;;;;44.50;18.63;;;7.30;82.10;;;;;;5011806;28;20201;-81
2022/11/14 02:03:12;;;;;;;37.22;16.10;;;7.30;82.20;;;;;;5012067;28;20255;-80
2022/11/14 02:05:59;;;;;;;39.33;16.27;;;7.30;82.20;;;;;;5011569;28;20097;-81
2022/11/14 02:08:46;;;;;;;38.65;17.02;;;7.40;82.10;;;;;;5011997;28;20062;-80
2022/11/14 02:11:37;;;;;;;37.00;16.00;;;7.30;82.10;;;;;;4996797;28;20984;-81
2022/11/14 02:14:23;;;;;;;37.70;15.60;;;7.30;82.10;;;;;;5011606;28;20214;-80
2022/11/14 02:17:08;;;;;;;40.28;17.42;;;7.30;82.10;;;;;;5011735;28;20286;-80
2022/11/14 02:19:57;;;;;;;41.13;17.05;;;7.30;82.10;;;;;;5007685;28;20051;-80
2022/11/14 02:22:44;;;;;;;38.03;15.90;;;7.30;82.10;;;;;;4993539;28;20054;-80
2022/11/14 02:25:30;;;;;;;40.20;17.85;;;7.30;82.10;;;;;;5008446;28;20062;-80
2022/11/14 02:28:15;;;;;;;43.67;17.90;;;7.20;82.20;;;;;;5008448;28;20050;-80
2022/11/14 02:31:01;;;;;;;46.50;18.27;;;7.20;82.20;;;;;;5008076;28;20259;-81
2022/11/14 02:33:46;;;;;;;41.28;17.50;;;7.20;82.40;;;;;;5008568;28;20086;-80
2022/11/14 02:36:32;;;;;;;41.80;18.10;;;7.20;82.40;;;;;;5008160;28;20055;-80
2022/11/14 02:39:19;;;;;;;41.42;18.10;;;7.20;82.50;;;;;;5008008;28;20043;-80
2022/11/14 02:42:05;;;;;;;43.67;18.80;;;7.20;82.40;;;;;;5008380;28;20145;-80
2022/11/14 02:44:51;;;;;;;40.33;17.83;;;7.20;82.40;;;;;;5008209;28;20262;-80
2022/11/14 02:47:37;;;;;;;44.45;18.55;;;7.20;82.30;;;;;;5008428;28;20051;-81
2022/11/14 02:50:22;;;;;;;47.70;19.88;;;7.20;82.20;;;;;;4993051;28;20185;-80
2022/11/14 02:53:08;;;;;;;42.67;18.10;;;7.20;82.30;;;;;;5008292;28;20051;-80
2022/11/14 02:55:55;;;;;;;45.40;18.80;;;7.20;82.20;;;;;;5007986;28;20051;-80
2022/11/14 02:58:40;;;;;;;40.65;17.98;;;7.20;82.30;;;;;;4992934;28;20265;-81
2022/11/14 03:01:26;;;;;;;43.58;18.25;;;7.20;82.50;;;;;;5007867;28;20061;-81
2022/11/14 03:04:12;;;;;;;45.20;18.83;;;7.20;82.60;;;;;;5007901;28;20105;-80
2022/11/14 03:06:58;;;;;;;44.33;18.80;;;7.20;82.40;;;;;;5007855;28;20054;-80
2022/11/14 03:09:43;;;;;;;50.23;20.57;;;7.20;82.60;;;;;;4992613;28;20070;-80
2022/11/14 03:12:31;;;;;;;45.22;18.52;;;7.20;82.60;;;;;;5007911;28;20289;-81
2022/11/14 03:15:17;;;;;;;48.20;18.67;;;7.20;82.50;;;;;;5007667;28;20084;-81
2022/11/14 03:18:02;;;;;;;49.35;19.50;;;7.20;82.80;;;;;;5007577;28;20094;-80
2022/11/14 03:20:48;;;;;;;44.22;18.75;;;7.10;82.70;;;;;;5007449;28;20043;-80
2022/11/14 03:23:34;;;;;;;49.50;20.47;;;7.10;82.80;;;;;;5007759;28;20516;-81
2022/11/14 03:26:19;;;;;;;45.67;17.13;;;7.10;82.70;;;;;;5007679;28;20271;-80
2022/11/14 03:29:07;;;;;;;41.92;18.65;;;7.10;83.00;;;;;;5007469;28;20062;-81
2022/11/14 03:31:53;;;;;;;43.78;18.58;;;7.00;82.90;;;;;;5007101;28;20889;-81
2022/11/14 03:34:38;;;;;;;45.45;19.60;;;7.00;82.90;;;;;;5007669;28;20214;-80
2022/11/14 03:37:24;;;;;;;42.20;18.20;;;7.00;82.80;;;;;;5007514;28;20054;-81
2022/11/14 03:40:11;;;;;;;46.40;18.30;;;7.00;82.80;;;;;;5006978;28;20848;-80
2022/11/14 03:42:58;;;;;;;46.40;18.80;;;7.00;82.70;;;;;;5007194;28;20043;-80
2022/11/14 03:45:45;;;;;;;45.17;18.08;;;7.00;83.00;;;;;;5007149;28;20118;-80
2022/11/14 03:48:31;;;;;;;45.63;18.58;;;7.00;82.80;;;;;;5007320;28;20051;-81
2022/11/14 03:51:17;;;;;;;44.57;18.67;;;7.00;83.00;;;;;;5007164;28;20053;-80
2022/11/14 03:54:02;;;;;;;40.08;18.20;;;7.00;83.00;;;;;;5007382;28;20262;-80
2022/11/14 03:56:48;;;;;;;40.90;17.75;;;7.00;83.10;;;;;;5007114;28;20169;-80
2022/11/14 03:59:33;;;;;;;40.20;17.55;;;7.00;83.20;;;;;;5006927;28;20051;-80
2022/11/14 04:02:20;;;;;;;45.97;18.73;;;7.00;83.10;;;;;;5007013;28;20084;-81
2022/11/14 04:05:06;;;;;;;42.47;18.53;;;7.00;83.10;;;;;;5007129;28;20050;-80
2022/11/14 04:07:52;;;;;;;43.42;18.65;;;7.00;83.20;;;;;;5006936;28;20660;-80
2022/11/14 04:10:38;;;;;;;41.15;17.95;;;7.00;83.20;;;;;;5007003;28;20055;-80
2022/11/14 04:13:23;;;;;;;43.65;17.23;;;7.00;83.10;;;;;;5006870;28;20484;-81
2022/11/14 04:16:09;;;;;;;43.75;18.52;;;7.00;83.10;;;;;;5006765;28;20054;-80
2022/11/14 04:18:56;;;;;;;39.00;17.93;;;7.00;83.20;;;;;;5006326;28;20055;-80
2022/11/14 04:21:41;;;;;;;41.38;16.75;;;7.00;83.20;;;;;;5006962;28;20282;-80
2022/11/14 04:24:27;;;;;;;44.20;19.05;;;7.00;83.20;;;;;;5006895;28;20051;-80
2022/11/14 04:27:13;;;;;;;42.03;18.05;;;7.00;83.20;;;;;;4991544;28;20984;-80
2022/11/14 04:30:00;;;;;;;40.05;17.10;;;7.00;83.50;;;;;;4991476;28;20058;-81
2022/11/14 04:32:47;;;;;;;37.80;17.13;;;7.00;83.40;;;;;;5006286;28;20186;-80
2022/11/14 04:35:34;;;;;;;42.47;18.27;;;7.00;83.40;;;;;;5006703;28;20282;-80
2022/11/14 04:38:20;;;;;;;42.50;17.55;;;7.00;83.40;;;;;;5006387;28;20049;-80
2022/11/14 04:41:57;;;;;;;42.42;18.38;;;7.00;83.50;;;;;;5008348;28;20050;-80
2022/11/14 04:44:42;;;;;;;41.78;16.58;;;7.00;83.60;;;;;;5006492;28;20476;-81
2022/11/14 04:47:28;;;;;;;39.90;17.27;;;7.00;83.60;;;;;;5006465;28;20888;-80
2022/11/14 04:50:14;;;;;;;40.78;17.35;;;7.00;83.60;;;;;;5006239;28;20255;-80
2022/11/14 04:53:00;;;;;;;41.20;17.85;;;7.00;83.50;;;;;;4991272;28;20101;-81
2022/11/14 04:55:46;;;;;;;42.15;17.25;;;7.10;83.60;;;;;;5006707;28;20084;-80
2022/11/14 04:58:32;;;;;;;39.35;16.58;;;7.10;83.30;;;;;;5006409;28;20046;-80
2022/11/14 05:01:17;;;;;;;43.10;18.53;;;7.10;83.40;;;;;;5006074;28;20165;-81
2022/11/14 05:04:03;;;;;;;40.55;17.80;;;7.10;83.20;;;;;;4991532;28;20290;-81
2022/11/14 05:06:49;;;;;;;40.42;18.70;;;7.10;83.20;;;;;;5006089;28;20066;-80
2022/11/14 05:09:36;;;;;;;42.05;17.70;;;7.10;83.20;;;;;;5006045;28;20056;-81
2022/11/14 05:12:21;;;;;;;42.25;18.50;;;7.10;83.30;;;;;;5006109;28;20058;-81
2022/11/14 05:15:08;;;;;;;41.30;17.80;;;7.10;83.20;;;;;;5006011;28;20146;-81
2022/11/14 05:17:53;;;;;;;37.35;16.33;;;7.10;83.50;;;;;;5005755;28;20266;-80
2022/11/14 05:20:39;;;;;;;41.92;17.70;;;7.20;83.40;;;;;;5005849;28;20161;-81
2022/11/14 05:23:25;;;;;;;42.63;18.00;;;7.10;83.30;;;;;;5005788;28;20051;-81
2022/11/14 05:26:15;;;;;;;39.63;17.10;;;7.10;83.40;;;;;;4990886;28;20111;-81
2022/11/14 05:29:00;;;;;;;41.93;18.17;;;7.10;83.50;;;;;;5003132;28;20489;-80
2022/11/14 05:31:46;;;;;;;39.85;17.55;;;7.10;83.50;;;;;;5009425;28;20280;-80
2022/11/14 05:34:31;;;;;;;38.97;16.90;;;7.10;83.50;;;;;;5009416;28;20073;-80
2022/11/14 05:37:17;;;;;;;45.10;18.08;;;7.10;83.40;;;;;;5009033;28;20050;-80
2022/11/14 05:40:03;;;;;;;39.08;18.05;;;7.00;83.30;;;;;;5010218;28;20822;-80
2022/11/14 05:42:54;;;;;;;40.33;18.40;;;7.10;83.30;;;;;;5008680;28;20854;-80
2022/11/14 05:45:39;;;;;;;39.67;17.52;;;7.00;83.40;;;;;;5009106;28;20325;-80
2022/11/14 05:48:25;;;;;;;39.30;16.77;;;7.00;83.50;;;;;;5009121;28;20058;-81
2022/11/14 05:51:12;;;;;;;41.42;17.67;;;7.00;83.60;;;;;;5009093;28;20058;-81
2022/11/14 05:53:58;;;;;;;42.00;17.98;;;7.00;83.50;;;;;;5010235;28;20054;-80
2022/11/14 05:56:43;;;;;;;40.37;16.20;;;7.00;83.60;;;;;;5011756;28;20091;-82
2022/11/14 05:59:30;;;;;;;42.50;18.33;;;7.00;83.40;;;;;;4999509;28;20297;-80
2022/11/14 06:02:16;;;;;;;40.25;17.40;;;7.00;83.30;;;;;;4991812;28;20065;-80
2022/11/14 06:05:02;;;;;;;45.47;18.27;;;7.00;83.30;;;;;;4989996;28;20417;-81
2022/11/14 06:07:48;;;;;;;43.63;18.30;;;7.00;83.40;;;;;;4993635;28;20062;-81
2022/11/14 06:10:35;;;;;;;40.93;18.80;;;7.00;83.40;;;;;;4904164;28;20095;-81
2022/11/14 06:13:23;;;;;;;42.70;18.60;;;7.00;83.40;;;;;;4961815;28;20285;-81
2022/11/14 06:16:11;;;;;;;43.05;18.15;;;7.00;83.40;;;;;;5021717;28;20050;-80
2022/11/14 06:18:57;;;;;;;42.72;18.63;;;7.00;83.40;;;;;;5026080;28;20062;-81
2022/11/14 06:21:43;;;;;;;43.60;17.65;;;7.00;83.30;;;;;;5008533;28;20058;-81
2022/11/14 06:24:28;;;;;;;44.37;18.20;;;7.00;83.30;;;;;;4991576;28;20133;-81
2022/11/14 06:27:14;;;;;;;46.67;19.05;;;7.00;83.30;;;;;;5017573;28;20351;-81
2022/11/14 06:30:00;;;;;;;43.13;17.45;;;7.00;83.20;;;;;;5012267;28;20058;-81
2022/11/14 06:36:44;;;;;;;46.10;18.80;;;6.90;83.20;;;;;;5010719;28;20818;-81
2022/11/14 06:39:29;;;;;;;48.30;18.87;;;6.90;83.30;;;;;;5026383;28;20440;-81
2022/11/14 06:42:15;;;;;;;43.95;18.08;;;6.90;83.30;;;;;;5010135;28;20273;-81
2022/11/14 06:45:01;;;;;;;44.20;18.67;;;6.90;83.30;;;;;;5027014;28;20061;-81
2022/11/14 06:47:47;;;;;;;44.70;18.60;;;6.90;83.20;;;;;;5010569;28;20050;-81
2022/11/14 06:50:32;;;;;;;45.70;19.67;;;6.90;83.20;;;;;;5026219;28;20590;-82
2022/11/14 06:53:19;;;;;;;46.10;18.93;;;6.90;83.30;;;;;;5026733;28;20042;-81
2022/11/14 06:56:07;;;;;;;44.55;18.33;;;6.90;83.30;;;;;;5027206;28;20768;-81
2022/11/14 06:58:52;;;;;;;42.15;17.02;;;6.90;83.40;;;;;;5012089;28;20638;-81
2022/11/14 07:01:40;;;;;;;43.30;18.65;;;6.90;83.40;;;;;;5010387;28;20089;-81
2022/11/14 07:04:26;;;;;;;41.10;17.20;;;7.00;83.20;;;;;;5025106;28;20050;-81
2022/11/14 07:07:11;;;;;;;41.57;17.73;;;7.00;82.90;;;;;;5024817;28;20057;-81
2022/11/14 07:09:59;;;;;;;41.22;18.02;;;6.90;82.70;;;;;;5024668;28;20696;-81
2022/11/14 07:12:44;;;;;;;44.03;17.90;;;6.90;82.60;;;;;;5025164;28;20043;-81
2022/11/14 07:15:30;;;;;;;45.92;18.30;;;6.90;82.60;;;;;;5008969;28;21066;-81
2022/11/14 07:18:15;;;;;;;46.70;19.33;;;6.90;82.50;;;;;;5026420;28;20188;-81
2022/11/14 07:21:04;;;;;;;50.20;18.70;;;6.90;82.40;;;;;;5026486;28;20046;-81
2022/11/14 07:23:49;;;;;;;44.88;18.55;;;6.90;82.40;;;;;;5011472;28;20276;-81
2022/11/14 07:26:36;;;;;;;47.67;20.35;;;6.90;82.40;;;;;;5026925;28;20050;-81
2022/11/14 07:29:21;;;;;;;49.40;20.40;;;6.80;82.40;;;;;;5026416;28;20061;-81
2022/11/14 07:32:07;;;;;;;52.15;19.27;;;6.80;82.50;;;;;;5026807;28;20050;-82
2022/11/14 07:34:52;;;;;;;46.10;18.67;;;6.80;82.40;;;;;;5027052;28;20140;-81
2022/11/14 07:37:38;;;;;;;44.72;18.13;;;6.80;82.50;;;;;;5026408;28;20254;-81
2022/11/14 07:40:25;;;;;;;45.58;18.60;;;6.80;82.40;;;;;;5026624;28;20093;-81
2022/11/14 07:43:12;;;;;;;47.95;18.85;;;6.80;82.40;;;;;;5026855;28;20137;-81
2022/11/14 07:45:59;;;;;;;42.92;18.40;;;6.80;82.60;;;;;;5011786;28;20054;-81
2022/11/14 07:48:45;;;;;;;43.33;18.27;;;6.70;82.50;;;;;;5026464;28;20070;-81
2022/11/14 07:51:31;;;;;;;46.13;17.83;;;6.70;82.50;;;;;;5026445;28;20277;-81
2022/11/14 07:54:16;;;;;;;48.72;18.23;;;6.60;82.70;;;;;;5026508;28;20046;-81
2022/11/14 07:57:02;;;;;;;51.15;20.70;;;6.60;82.90;;;;;;5026385;28;20042;-81
2022/11/14 07:59:49;;;;;;;48.47;19.73;;;6.60;83.10;;;;;;5010814;28;20046;-81
2022/11/14 08:02:34;;;;;;;46.17;19.70;;;6.60;83.00;;;;;;5026373;28;20201;-81
2022/11/14 08:05:20;;;;;;;45.17;18.25;;;6.60;83.10;;;;;;5026437;28;20293;-81
2022/11/14 08:08:06;;;;;;;51.13;19.45;;;6.60;83.10;;;;;;5026114;28;20082;-81
2022/11/14 08:10:55;;;;;;;46.47;18.33;;;6.70;83.10;;;;;;5026475;28;20045;-81
2022/11/14 08:13:41;;;;;;;50.72;19.02;;;6.70;83.10;;;;;;5026603;28;20065;-81
2022/11/14 08:16:28;;;;;;;47.90;19.30;;;6.60;83.20;;;;;;5010762;28;20050;-81
2022/11/14 08:19:15;;;;;;;47.17;19.35;;;6.60;83.20;;;;;;5025451;28;20688;-81
2022/11/14 08:22:01;;;;;;;45.13;18.35;;;6.60;83.30;;;;;;5011223;28;20516;-81
2022/11/14 08:24:47;;;;;;;47.45;18.83;;;6.60;83.40;;;;;;5026315;28;20085;-81
2022/11/14 08:27:32;;;;;;;48.45;19.85;;;6.60;83.50;;;;;;5026547;28;20050;-81
2022/11/14 08:30:18;;;;;;;45.27;20.03;;;6.60;83.60;;;;;;5026024;28;20153;-81
2022/11/14 08:33:06;;;;;;;45.60;18.80;;;6.70;83.70;;;;;;5026379;28;20262;-81
2022/11/14 08:35:52;;;;;;;45.45;18.98;;;6.70;83.30;;;;;;5025854;28;20173;-81
2022/11/14 08:38:38;;;;;;;40.75;16.65;;;6.70;83.30;;;;;;5026113;28;20161;-81
2022/11/14 08:41:23;;;;;;;43.20;17.15;;;6.70;83.50;;;;;;5026121;28;20062;-81
2022/11/14 08:44:09;;;;;;;47.17;18.63;;;6.70;83.50;;;;;;5026250;28;20156;-81
2022/11/14 08:46:55;;;;;;;42.70;18.15;;;6.70;83.50;;;;;;5026359;28;20301;-80
2022/11/14 08:49:42;;;;;;;43.15;18.17;;;6.70;83.50;;;;;;5025693;28;20546;-81
2022/11/14 08:52:27;;;;;;;44.90;18.25;;;6.70;83.50;;;;;;5009465;28;20058;-81
2022/11/14 08:55:13;;;;;;;43.83;17.92;;;6.70;83.60;;;;;;5026019;28;20133;-81
2022/11/14 08:57:59;;;;;;;46.07;17.57;;;6.70;83.70;;;;;;5010759;28;20046;-81
2022/11/14 09:00:44;;;;;;;45.65;18.15;;;6.70;83.80;;;;;;5025818;28;20266;-80
2022/11/14 09:03:30;;;;;;;45.38;19.40;;;6.70;83.70;;;;;;5025951;28;20050;-81
2022/11/14 09:06:17;;;;;;;42.83;17.80;;;6.80;83.70;;;;;;5025772;28;20566;-81
2022/11/14 09:09:03;;;;;;;44.05;17.25;;;6.80;83.70;;;;;;5025711;28;20056;-81
2022/11/14 09:11:49;;;;;;;42.90;18.23;;;6.80;83.90;;;;;;5025784;28;20059;-81
2022/11/14 09:14:34;;;;;;;40.85;17.75;;;6.80;83.70;;;;;;5026071;28;20396;-81
2022/11/14 09:17:20;;;;;;;42.03;17.88;;;6.90;83.90;;;;;;5025568;28;20051;-81
2022/11/14 09:20:06;;;;;;;46.25;18.58;;;6.90;84.00;;;;;;5025316;28;20050;-81
2022/11/14 09:22:53;;;;;;;42.95;18.38;;;7.00;83.90;;;;;;5025330;28;20081;-81
2022/11/14 09:25:39;;;;;;;42.73;18.30;;;7.00;83.90;;;;;;5025660;28;20587;-81
2022/11/14 09:28:24;;;;;;;42.95;17.77;;;7.00;83.70;;;;;;5026076;28;20258;-81
2022/11/14 09:31:12;;;;;;;44.88;17.08;;;7.00;83.70;;;;;;5028826;28;20121;-81
2022/11/14 09:33:57;;;;;;;42.05;18.23;;;7.00;83.70;;;;;;5028917;28;20054;-81
2022/11/14 09:36:43;;;;;;;39.72;18.05;;;7.10;83.90;;;;;;5013972;28;20046;-81
2022/11/14 09:39:30;;;;;;;46.53;17.93;;;7.20;83.90;;;;;;5028608;28;20049;-81
2022/11/14 09:42:27;;;;;;;43.42;18.50;;;7.20;83.90;;;;;;5028985;28;20285;-81
2022/11/14 09:45:16;;;;;;;42.08;16.52;;;7.20;83.60;;;;;;5013401;28;20050;-81
2022/11/14 09:48:06;;;;;;;43.05;17.83;;;7.20;83.50;;;;;;5028937;28;20567;-80
2022/11/14 09:51:04;;;;;;;38.38;15.68;;;7.30;83.30;;;;;;5028365;28;20521;-81
2022/11/14 09:53:56;;;;;;;41.43;17.93;;;7.40;83.30;;;;;;5028750;28;20100;-81
2022/11/14 09:56:43;;;;;;;42.65;16.73;;;7.40;83.20;;;;;;5028752;28;20278;-81
2022/11/14 09:59:29;;;;;;;41.42;15.65;;;7.40;83.20;;;;;;5028368;28;20184;-81
2022/11/14 10:02:27;;;;;;;40.28;16.25;;;7.50;83.30;;;;;;5013711;28;20046;-81
2022/11/14 10:05:45;;;;;;;43.92;17.25;;;7.50;83.30;;;;;;5028086;28;20081;-81
2022/11/14 10:08:49;;;;;;;41.47;18.07;;;7.50;83.20;;;;;;5012015;28;20524;-81
2022/11/14 10:11:39;;;;;;;42.83;17.45;;;7.50;83.10;;;;;;5011988;28;20262;-81
2022/11/14 10:14:56;;;;;;;38.90;16.13;;;7.60;83.20;;;;;;5027288;28;20054;-80
2022/11/14 10:18:05;;;;;;;37.13;16.00;;;7.70;83.20;;;;;;5026487;28;20907;-78
2022/11/14 10:20:54;;;;;;;39.95;16.35;;;7.80;82.90;;;;;;5026634;28;20046;-78
2022/11/14 10:23:54;;;;;;;39.83;17.03;;;7.80;82.80;;;;;;5026641;28;20518;-79
2022/11/14 10:26:50;;;;;;;38.85;15.55;;;8.00;82.60;;;;;;5006761;28;20669;-78
2022/11/14 10:29:55;;;;;;;38.22;17.38;;;8.00;82.40;;;;;;5026786;28;20064;-77
2022/11/14 10:33:15;;;;;;;40.47;16.75;;;8.00;82.10;;;;;;5011503;28;20042;-78
2022/11/14 10:36:10;;;;;;;44.85;17.33;;;8.10;82.00;;;;;;4987088;28;20077;-78
2022/11/14 10:39:05;;;;;;;39.40;16.57;;;8.20;81.70;;;;;;4926027;28;20156;-78
2022/11/14 10:41:55;;;;;;;38.58;16.77;;;8.20;81.90;;;;;;5011450;28;21108;-78
2022/11/14 10:44:49;;;;;;;38.63;17.05;;;8.30;81.90;;;;;;5011243;28;20096;-79
2022/11/14 10:47:40;;;;;;;37.95;16.50;;;8.40;81.90;;;;;;5011572;28;20132;-79
2022/11/14 10:50:37;;;;;;;35.85;16.25;;;8.40;81.80;;;;;;5010888;28;20460;-78
2022/11/14 10:53:28;;;;;;;40.63;17.17;;;8.50;81.80;;;;;;5024253;28;20046;-79
2022/11/14 10:56:14;;;;;;;35.88;15.90;;;8.60;81.30;;;;;;5024331;28;20317;-79
2022/11/14 10:59:00;;;;;;;37.35;15.82;;;8.60;81.00;;;;;;5027245;28;20050;-79
2022/11/14 11:01:53;;;;;;;34.95;16.75;;;8.60;80.80;;;;;;5010785;28;20052;-80
2022/11/14 11:04:42;;;;;;;35.00;16.25;;;8.70;80.80;;;;;;5012481;28;20056;-79
2022/11/14 11:13:46;;;;;;;37.45;16.40;;;9.00;80.80;;;;;;5010813;28;20181;-80
2022/11/14 11:16:32;;;;;;;32.28;16.50;;;9.00;80.80;;;;;;5009871;28;20394;-79
2022/11/14 11:19:24;;;;;;;35.80;15.68;;;9.10;80.80;;;;;;5010016;28;20113;-79
2022/11/14 11:22:27;;;;;;;34.70;16.33;;;9.20;80.50;;;;;;5009208;28;20058;-78
2022/11/14 11:25:24;;;;;;;33.00;16.05;;;9.30;80.30;;;;;;5009003;28;21117;-80
2022/11/14 11:28:13;;;;;;;33.22;15.52;;;9.40;80.00;;;;;;5011011;28;20047;-78
2022/11/14 11:31:00;;;;;;;32.15;15.43;;;9.40;80.10;;;;;;5008770;28;20136;-80
2022/11/14 11:33:47;;;;;;;30.15;14.40;;;9.50;79.70;;;;;;5009071;28;20050;-80
2022/11/14 11:36:39;;;;;;;32.07;15.83;;;9.50;79.30;;;;;;5010223;28;20086;-80
2022/11/14 11:39:29;;;;;;;35.13;15.18;;;9.60;79.30;;;;;;5010276;28;20320;-79
2022/11/14 11:42:20;;;;;;;31.25;15.70;;;9.70;79.20;;;;;;5027153;28;20050;-79
2022/11/14 11:45:24;;;;;;;29.95;14.52;;;9.70;79.10;;;;;;5005226;28;20073;-79
2022/11/14 11:48:16;;;;;;;31.80;14.70;;;9.80;78.70;;;;;;4991644;28;20995;-79
2022/11/14 11:51:04;;;;;;;31.30;15.23;;;10.00;78.60;;;;;;5009995;28;20046;-79
2022/11/14 11:53:58;;;;;;;29.75;13.90;;;10.00;78.00;;;;;;5011773;28;20404;-78
2022/11/14 11:56:51;;;;;;;35.22;15.52;;;10.00;77.90;;;;;;5009456;28;20061;-80
2022/11/14 11:59:41;;;;;;;31.45;15.23;;;10.10;78.00;;;;;;5009827;28;20051;-78
2022/11/14 12:02:28;;;;;;;30.33;14.45;;;10.20;77.90;;;;;;5025743;28;20054;-80
2022/11/14 12:05:16;;;;;;;30.80;14.20;;;10.20;77.70;;;;;;5011068;28;20487;-80
2022/11/14 12:08:03;;;;;;;30.92;15.35;;;10.30;77.60;;;;;;5026150;28;20258;-79
2022/11/14 12:10:50;;;;;;;27.08;14.18;;;10.40;77.80;;;;;;5025747;28;20050;-80
2022/11/14 12:13:59;;;;;;;27.75;13.88;;;10.40;77.20;;;;;;5026557;28;20090;-80
2022/11/14 12:17:19;;;;;;;28.67;13.15;;;10.50;77.10;;;;;;5009470;28;20048;-80
2022/11/14 12:20:37;;;;;;;27.97;13.37;;;10.60;76.40;;;;;;5024866;28;20492;-80
2022/11/14 12:24:14;;;;;;;27.42;13.80;;;10.60;76.60;;;;;;5024860;28;20257;-82
2022/11/14 12:27:12;;;;;;;25.85;12.68;;;10.70;76.20;;;;;;5007682;28;20054;-79
2022/11/14 12:30:14;;;;;;;26.98;13.18;;;10.80;76.20;;;;;;5009018;28;20046;-81
2022/11/14 12:33:04;;;;;;;23.27;12.38;;;10.80;75.70;;;;;;5024568;28;20129;-80
2022/11/14 12:35:52;;;;;;;26.67;13.30;;;10.90;75.70;;;;;;5016426;28;20986;-80
2022/11/14 12:38:44;;;;;;;26.05;13.35;;;10.90;75.80;;;;;;5023875;28;20401;-79
2022/11/14 12:41:33;;;;;;;27.08;13.25;;;11.00;75.60;;;;;;5011178;28;20054;-80
2022/11/14 12:44:31;;;;;;;25.75;13.60;;;11.10;75.40;;;;;;5011183;28;20065;-80
2022/11/14 12:47:23;;;;;;;27.25;14.02;;;11.10;75.00;;;;;;5010629;28;20051;-80
2022/11/14 12:50:33;;;;;;;24.83;12.90;;;11.10;75.20;;;;;;5025886;28;20523;-79
2022/11/14 12:53:45;;;;;;;23.33;12.65;;;11.20;75.20;;;;;;5026002;28;20261;-80
2022/11/14 12:57:08;;;;;;;25.05;13.02;;;11.30;74.70;;;;;;5010645;28;20061;-79
2022/11/14 13:00:02;;;;;;;25.67;12.13;;;11.30;73.90;;;;;;5025696;28;20058;-79
2022/11/14 13:03:15;;;;;;;24.77;12.77;;;11.40;72.60;;;;;;5025576;28;20508;-79
2022/11/14 13:06:07;;;;;;;22.23;12.10;;;11.40;73.10;;;;;;5025762;28;20058;-79
2022/11/14 13:09:16;;;;;;;22.05;11.82;;;11.40;73.30;;;;;;5025568;28;20731;-80
2022/11/14 13:22:37;;;;;;;24.03;12.50;;;11.70;73.00;;;;;;4971710;28;20054;-80
2022/11/14 13:25:24;;;;;;;25.63;12.10;;;11.70;72.70;;;;;;4971516;28;20327;-81
2022/11/14 13:28:44;;;;;;;22.77;12.02;;;11.70;72.70;;;;;;5007390;28;20561;-80
2022/11/14 13:31:45;;;;;;;22.88;12.60;;;11.70;72.60;;;;;;5025572;28;20066;-80
2022/11/14 13:34:43;;;;;;;23.58;12.57;;;11.80;72.30;;;;;;5025538;28;20444;-80
2022/11/14 13:38:03;;;;;;;23.77;12.07;;;11.80;72.30;;;;;;5025416;28;20042;-80
2022/11/14 13:40:59;;;;;;;23.05;12.05;;;11.90;72.50;;;;;;5008319;28;20334;-77
2022/11/14 13:44:08;;;;;;;23.95;12.05;;;11.90;72.50;;;;;;5009861;28;20842;-79
2022/11/14 13:47:11;;;;;;;21.60;11.38;;;11.90;72.30;;;;;;5019463;28;20630;-79
2022/11/14 13:50:04;;;;;;;18.92;10.68;;;12.00;72.00;;;;;;5024850;28;20049;-79
2022/11/14 13:52:50;;;;;;;19.93;11.07;;;12.00;71.40;;;;;;5008543;28;20117;-80
2022/11/14 13:55:44;;;;;;;20.02;11.00;;;12.00;71.50;;;;;;5025113;28;20685;-80
2022/11/14 13:58:49;;;;;;;21.98;10.98;;;12.00;71.00;;;;;;5025090;28;20113;-80
2022/11/14 14:01:46;;;;;;;18.98;11.27;;;12.00;70.20;;;;;;5025139;28;20539;-80
2022/11/14 14:04:45;;;;;;;20.05;10.85;;;12.00;70.30;;;;;;5009902;28;20185;-80
2022/11/14 14:07:43;;;;;;;18.70;9.93;;;12.00;70.40;;;;;;5008368;28;20054;-79
2022/11/14 14:10:37;;;;;;;19.08;9.82;;;12.10;70.30;;;;;;5009595;28;20258;-79
2022/11/14 14:13:39;;;;;;;19.80;10.90;;;12.00;69.50;;;;;;5008239;28;20066;-80
2022/11/14 14:16:34;;;;;;;20.45;10.90;;;12.00;70.20;;;;;;5012999;28;20050;-81
2022/11/14 14:19:30;;;;;;;17.70;10.38;;;12.10;70.50;;;;;;5010390;28;20575;-80
2022/11/14 14:22:23;;;;;;;20.83;10.50;;;12.10;70.50;;;;;;5011708;28;20054;-80
2022/11/14 14:25:18;;;;;;;17.77;10.60;;;12.10;69.50;;;;;;5009952;28;20312;-81
2022/11/14 14:28:15;;;;;;;19.40;10.50;;;12.20;69.60;;;;;;5010010;28;20092;-81
2022/11/14 14:31:01;;;;;;;20.75;10.52;;;12.20;69.70;;;;;;5011345;28;20570;-80
2022/11/14 14:33:49;;;;;;;19.25;10.70;;;12.20;69.20;;;;;;5009684;28;20062;-80
2022/11/14 14:36:35;;;;;;;19.47;10.57;;;12.20;69.30;;;;;;5021187;28;20975;-81
2022/11/14 14:39:24;;;;;;;20.90;10.75;;;12.20;69.70;;;;;;4861435;28;24969;-80
2022/11/14 14:42:13;;;;;;;19.73;10.32;;;12.20;69.00;;;;;;4992873;28;20054;-80
2022/11/14 14:44:59;;;;;;;17.42;10.30;;;12.20;68.70;;;;;;5012801;28;20144;-80
2022/11/14 14:47:48;;;;;;;18.00;10.05;;;12.20;68.90;;;;;;5027778;28;20061;-81
2022/11/14 14:50:38;;;;;;;17.70;10.27;;;12.20;68.20;;;;;;5027494;28;20046;-81
2022/11/14 14:53:26;;;;;;;17.90;10.00;;;12.20;67.70;;;;;;5027805;28;20266;-80